Terminal Aerodrome Forecast
Issued by NWS Central Illinois

Home | Current Version | Previous Version | Text Only | Print | Product List | Glossary On
Versions: 1 2 3 4 5 6 7 8 9 10 11 12 13 14 15 16 17 18 19
000
FTUS43 KILX 252200 AAB
TAFSPI
TAF AMD
KSPI 252241Z 2523/2618 01017KT P6SM -RASN OVC010
     FM260000 36015G25KT P6SM OVC015
     FM260600 34008KT P6SM BKN015
     FM261300 26005KT P6SM SCT050 BKN100=

USA.gov is the U.S. government's official web portal to all federal, state and local government web resources and services.